createdAt,value
2019-02-02T00:01:35.251Z,17.30
2019-02-02T00:04:03.329Z,18.87
2019-02-02T00:06:31.426Z,18.03
2019-02-02T00:08:59.523Z,17.70
2019-02-02T00:11:28.053Z,15.90
2019-02-02T00:13:56.166Z,16.80
2019-02-02T00:16:24.246Z,15.07
2019-02-02T00:18:52.330Z,15.73
2019-02-02T00:21:20.427Z,14.00
2019-02-02T00:23:48.558Z,14.23
2019-02-02T00:26:16.678Z,14.40
2019-02-02T00:28:44.777Z,14.03
2019-02-02T00:31:12.872Z,14.00
2019-02-02T00:33:40.981Z,13.23
2019-02-02T00:36:09.086Z,14.10
2019-02-02T00:38:37.174Z,13.43
2019-02-02T00:41:05.350Z,14.20
2019-02-02T00:43:33.504Z,13.70
2019-02-02T00:46:01.573Z,13.87
2019-02-02T00:48:29.673Z,15.03
2019-02-02T00:50:57.753Z,15.50
2019-02-02T00:53:25.844Z,15.17
2019-02-02T00:55:53.947Z,16.70
2019-02-02T00:58:22.043Z,17.83
2019-02-02T01:00:50.127Z,18.73
2019-02-02T01:03:18.219Z,20.00
2019-02-02T01:05:46.421Z,18.47
2019-02-02T01:08:14.529Z,18.03
2019-02-02T01:10:43.048Z,16.73
2019-02-02T01:13:11.121Z,15.97
2019-02-02T01:15:39.247Z,15.23
2019-02-02T01:18:07.459Z,16.13
2019-02-02T01:20:35.577Z,15.83
2019-02-02T01:23:03.758Z,14.03
2019-02-02T01:25:31.838Z,14.10
2019-02-02T01:28:05.481Z,14.30
2019-02-02T01:30:29.738Z,13.13
2019-02-02T01:32:57.822Z,13.07
2019-02-02T01:35:25.893Z,12.57
2019-02-02T01:37:53.931Z,13.03
2019-02-02T01:40:22.034Z,11.87
2019-02-02T01:42:50.133Z,12.87
2019-02-02T01:45:22.804Z,11.80
2019-02-02T01:47:50.973Z,12.47
2019-02-02T01:50:20.019Z,11.77
2019-02-02T01:52:48.179Z,12.53
2019-02-02T01:55:16.289Z,10.90
2019-02-02T01:57:44.861Z,10.40
2019-02-02T02:00:17.545Z,9.73
2019-02-02T02:02:45.618Z,9.63
2019-02-02T02:05:13.714Z,9.57
2019-02-02T02:07:41.948Z,9.00
2019-02-02T02:10:10.594Z,10.00
2019-02-02T02:12:38.657Z,9.80
2019-02-02T02:15:07.886Z,9.57
2019-02-02T02:17:35.994Z,9.07
2019-02-02T02:20:05.058Z,9.43
2019-02-02T02:22:40.879Z,9.30
2019-02-02T02:25:02.902Z,9.30
2019-02-02T02:27:30.978Z,9.20
2019-02-02T02:29:59.050Z,8.93
2019-02-02T02:32:27.118Z,9.10
2019-02-02T02:34:55.188Z,10.00
2019-02-02T02:37:23.281Z,9.73
2019-02-02T02:39:51.369Z,9.37
2019-02-02T02:42:19.509Z,9.53
2019-02-02T02:44:47.564Z,12.00
2019-02-02T02:47:15.653Z,11.53
2019-02-02T02:49:43.763Z,12.27
2019-02-02T02:52:11.880Z,10.80
2019-02-02T02:54:39.959Z,9.73
2019-02-02T02:57:08.078Z,10.87
2019-02-02T02:59:36.147Z,10.57
2019-02-02T03:02:04.860Z,10.30
2019-02-02T03:04:33.064Z,11.63
2019-02-02T03:07:01.129Z,11.23
2019-02-02T03:09:29.222Z,10.67
2019-02-02T03:11:57.306Z,11.37
2019-02-02T03:14:25.386Z,11.60
2019-02-02T03:16:53.579Z,10.33
2019-02-02T03:19:21.745Z,10.37
2019-02-02T03:21:49.849Z,10.13
2019-02-02T03:24:17.964Z,8.97
2019-02-02T03:26:46.039Z,9.37
2019-02-02T03:29:14.104Z,8.40
2019-02-02T03:31:42.185Z,9.17
2019-02-02T03:34:10.261Z,8.90
2019-02-02T03:36:38.345Z,8.87
2019-02-02T03:39:10.923Z,8.90
2019-02-02T03:41:39.020Z,8.60
2019-02-02T03:44:07.084Z,9.63
2019-02-02T03:46:35.274Z,9.07
2019-02-02T03:49:03.368Z,9.63
2019-02-02T03:51:31.443Z,9.60
2019-02-02T03:54:08.124Z,9.63
2019-02-02T03:56:29.293Z,10.60
2019-02-02T03:59:05.976Z,9.23
2019-02-02T04:01:29.945Z,9.33
2019-02-02T04:03:56.866Z,9.43
2019-02-02T04:06:24.981Z,9.27
2019-02-02T04:08:53.080Z,9.63
2019-02-02T04:11:21.253Z,9.87
2019-02-02T04:13:49.339Z,10.17
2019-02-02T04:16:17.429Z,10.83
2019-02-02T04:18:45.541Z,11.30
2019-02-02T04:21:13.611Z,12.60
2019-02-02T04:23:41.701Z,11.60
2019-02-02T04:26:09.796Z,12.57
2019-02-02T04:28:38.016Z,12.57
2019-02-02T04:31:06.145Z,12.60
2019-02-02T04:33:34.243Z,12.10
2019-02-02T04:36:02.332Z,12.70
2019-02-02T04:38:30.427Z,12.07
2019-02-02T04:40:58.513Z,11.00
2019-02-02T04:43:26.587Z,10.67
2019-02-02T04:45:54.659Z,10.80
2019-02-02T04:48:22.778Z,10.40
2019-02-02T04:50:50.844Z,10.80
2019-02-02T04:53:18.945Z,10.27
2019-02-02T04:55:46.990Z,9.93
2019-02-02T04:58:15.115Z,9.87
2019-02-02T05:00:43.242Z,10.90
2019-02-02T05:03:11.351Z,9.63
2019-02-02T05:05:39.438Z,10.83
2019-02-02T05:08:07.537Z,10.17
2019-02-02T05:10:35.625Z,11.33
2019-02-02T05:13:03.740Z,11.73
2019-02-02T05:15:31.830Z,11.40
2019-02-02T05:17:59.894Z,11.20
2019-02-02T05:20:27.969Z,11.70
2019-02-02T05:22:55.989Z,10.23
2019-02-02T05:25:24.063Z,10.40
2019-02-02T05:27:52.129Z,11.30
2019-02-02T05:30:21.521Z,11.43
2019-02-02T05:32:49.577Z,11.23
2019-02-02T05:35:17.737Z,10.77
2019-02-02T05:37:45.744Z,10.63
2019-02-02T05:40:14.760Z,10.27
2019-02-02T05:42:42.873Z,10.53
2019-02-02T05:45:12.219Z,10.50
2019-02-02T05:47:40.289Z,10.90
2019-02-02T05:50:09.484Z,10.43
2019-02-02T05:52:37.571Z,10.57
2019-02-02T05:55:06.533Z,10.07
2019-02-02T05:57:34.606Z,10.73
2019-02-02T06:00:02.702Z,11.20
2019-02-02T06:02:30.773Z,10.77
2019-02-02T06:04:58.874Z,9.83
2019-02-02T06:07:26.954Z,11.47
2019-02-02T06:09:55.051Z,11.30
2019-02-02T06:12:23.149Z,11.03
2019-02-02T06:14:51.222Z,11.63
2019-02-02T06:17:19.300Z,11.47
2019-02-02T06:19:47.370Z,11.87
2019-02-02T06:22:15.478Z,11.90
2019-02-02T06:24:43.538Z,13.83
2019-02-02T06:27:11.930Z,13.07
2019-02-02T06:29:40.078Z,12.63
2019-02-02T06:32:11.987Z,13.03
2019-02-02T06:34:37.858Z,12.43
2019-02-02T06:37:05.985Z,12.27
2019-02-02T06:39:34.010Z,12.27
2019-02-02T06:42:02.102Z,12.30
2019-02-02T06:44:30.178Z,12.73
2019-02-02T06:46:58.260Z,11.57
2019-02-02T06:49:26.331Z,11.13
2019-02-02T06:51:54.423Z,12.60
2019-02-02T06:54:22.510Z,10.53
2019-02-02T06:56:50.600Z,12.33
2019-02-02T06:59:18.665Z,12.47
2019-02-02T07:01:46.746Z,11.27
2019-02-02T07:04:14.801Z,10.73
2019-02-02T07:06:43.115Z,11.30
2019-02-02T07:09:11.232Z,10.53
2019-02-02T07:11:39.240Z,10.57
2019-02-02T07:14:07.413Z,11.67
2019-02-02T07:16:35.492Z,11.27
2019-02-02T07:19:03.592Z,11.90
2019-02-02T07:21:32.268Z,12.27
2019-02-02T07:24:00.337Z,12.43
2019-02-02T07:26:28.431Z,11.23
2019-02-02T07:28:56.586Z,11.53
2019-02-02T07:31:24.681Z,11.10
2019-02-02T07:33:52.815Z,9.77
2019-02-02T07:36:20.862Z,9.83
2019-02-02T07:38:48.941Z,10.33
2019-02-02T07:41:17.054Z,9.30
2019-02-02T07:43:45.157Z,8.63
2019-02-02T07:46:15.026Z,8.03
2019-02-02T07:48:42.962Z,8.67
2019-02-02T07:51:11.046Z,7.97
2019-02-02T07:53:39.154Z,7.77
2019-02-02T07:56:07.253Z,8.30
2019-02-02T07:58:35.368Z,7.70
2019-02-02T08:01:03.502Z,7.70
2019-02-02T08:03:31.574Z,7.40
2019-02-02T08:05:59.726Z,7.20
2019-02-02T08:08:27.790Z,7.23
2019-02-02T08:10:55.924Z,7.90
2019-02-02T08:13:24.129Z,5.67
2019-02-02T08:15:52.293Z,5.87
2019-02-02T08:18:20.362Z,6.03
2019-02-02T08:20:48.463Z,5.90
2019-02-02T08:23:16.701Z,6.37
2019-02-02T08:25:45.084Z,5.53
2019-02-02T08:28:13.159Z,5.67
2019-02-02T08:30:51.631Z,5.50
2019-02-02T08:33:10.951Z,5.23
2019-02-02T08:35:39.179Z,4.77
2019-02-02T08:38:07.233Z,4.23
2019-02-02T08:40:35.327Z,4.50
2019-02-02T08:43:03.388Z,3.87
2019-02-02T08:45:31.503Z,4.20
2019-02-02T08:47:59.673Z,4.30
2019-02-02T08:50:29.177Z,20.40
2019-02-02T08:52:57.783Z,59.87
2019-02-02T08:55:25.829Z,7.73
2019-02-02T08:57:53.907Z,5.30
2019-02-02T09:00:22.077Z,10.67
2019-02-02T09:02:50.161Z,18.30
2019-02-02T09:05:19.021Z,5.60
2019-02-02T09:07:47.073Z,3.30
2019-02-02T09:10:16.593Z,3.17
2019-02-02T09:12:44.682Z,3.37
2019-02-02T09:15:13.278Z,3.33
2019-02-02T09:17:41.414Z,3.17
2019-02-02T09:20:09.759Z,3.57
2019-02-02T09:22:37.847Z,3.63
2019-02-02T09:25:06.626Z,3.80
2019-02-02T09:27:34.850Z,3.50
2019-02-02T09:30:02.918Z,3.80
2019-02-02T09:32:30.994Z,4.00
2019-02-02T09:34:59.074Z,4.10
2019-02-02T09:37:27.159Z,3.80
2019-02-02T09:39:55.553Z,4.37
2019-02-02T09:42:23.572Z,3.90
2019-02-02T09:44:51.649Z,4.30
2019-02-02T09:47:20.215Z,4.23
2019-02-02T09:49:48.569Z,3.97
2019-02-02T09:52:16.631Z,3.10
2019-02-02T09:54:44.705Z,3.20
2019-02-02T09:57:12.816Z,3.93
2019-02-02T09:59:40.897Z,3.10
2019-02-02T10:02:08.986Z,3.40
2019-02-02T10:04:37.059Z,3.57
2019-02-02T10:07:05.141Z,2.90
2019-02-02T10:09:33.212Z,2.90
2019-02-02T10:12:01.282Z,2.70
2019-02-02T10:14:29.376Z,3.17
2019-02-02T10:16:57.457Z,2.80
2019-02-02T10:19:25.561Z,2.80
2019-02-02T10:21:53.724Z,3.20
2019-02-02T10:24:21.877Z,2.83
2019-02-02T10:26:49.941Z,2.63
2019-02-02T10:29:18.015Z,2.83
2019-02-02T10:31:46.086Z,2.63
2019-02-02T10:34:14.176Z,2.37
2019-02-02T10:36:42.315Z,2.40
2019-02-02T10:39:10.417Z,2.70
2019-02-02T10:41:38.521Z,2.67
2019-02-02T10:44:06.598Z,2.30
2019-02-02T10:46:34.703Z,2.67
2019-02-02T10:49:02.847Z,2.57
2019-02-02T10:51:30.946Z,2.93
2019-02-02T10:53:59.108Z,2.70
2019-02-02T10:56:27.210Z,2.73
2019-02-02T10:58:55.278Z,2.77
2019-02-02T11:01:23.344Z,2.47
2019-02-02T11:03:51.426Z,2.87
2019-02-02T11:06:19.566Z,1.87
2019-02-02T11:08:47.622Z,2.00
2019-02-02T11:11:15.755Z,2.30
2019-02-02T11:13:43.849Z,2.37
2019-02-02T11:16:11.988Z,2.13
2019-02-02T11:18:40.032Z,2.63
2019-02-02T11:21:08.136Z,1.97
2019-02-02T11:23:36.171Z,1.90
2019-02-02T11:26:04.326Z,2.30
2019-02-02T11:28:32.409Z,1.87
2019-02-02T11:31:00.430Z,2.03
2019-02-02T11:33:28.515Z,1.87
2019-02-02T11:35:56.625Z,1.20
2019-02-02T11:38:24.722Z,2.13
2019-02-02T11:40:52.823Z,7.13
2019-02-02T11:43:20.901Z,9.70
2019-02-02T11:45:49.014Z,15.83
2019-02-02T11:48:17.111Z,936.87
2019-02-02T11:50:45.238Z,999.90
2019-02-02T11:53:13.375Z,999.90
2019-02-02T11:55:41.471Z,999.90
2019-02-02T11:58:09.620Z,999.90
2019-02-02T12:00:39.299Z,942.30
2019-02-02T12:03:07.370Z,99.80
2019-02-02T12:05:35.969Z,20.37
2019-02-02T12:08:04.641Z,5.27
2019-02-02T12:10:32.755Z,3.00
2019-02-02T12:13:00.834Z,2.20
2019-02-02T12:15:28.945Z,1.90
2019-02-02T12:17:57.052Z,2.00
2019-02-02T12:20:25.447Z,1.83
2019-02-02T12:22:53.645Z,1.33
2019-02-02T12:25:21.733Z,1.47
2019-02-02T12:27:49.821Z,1.27
2019-02-02T12:30:19.021Z,1.47
2019-02-02T12:32:47.078Z,1.90
2019-02-02T12:35:19.490Z,17.67
2019-02-02T12:37:47.628Z,25.30
2019-02-02T12:40:15.861Z,15.87
2019-02-02T12:42:43.990Z,19.30
2019-02-02T12:45:13.753Z,12.57
2019-02-02T12:47:41.818Z,2.67
2019-02-02T12:50:10.708Z,1.70
2019-02-02T12:52:38.782Z,2.10
2019-02-02T12:55:07.206Z,1.20
2019-02-02T12:57:35.205Z,1.50
2019-02-02T13:00:03.294Z,1.40
2019-02-02T13:02:38.098Z,1.50
2019-02-02T13:05:01.088Z,1.37
2019-02-02T13:07:29.147Z,1.60
2019-02-02T13:09:57.238Z,1.20
2019-02-02T13:12:25.306Z,1.10
2019-02-02T13:14:53.299Z,1.20
2019-02-02T13:17:21.566Z,1.07
2019-02-02T13:19:49.832Z,0.80
2019-02-02T13:22:17.992Z,1.00
2019-02-02T13:24:45.986Z,0.80
2019-02-02T13:27:14.222Z,0.80
2019-02-02T13:29:42.420Z,0.70
2019-02-02T13:32:10.511Z,0.60
2019-02-02T13:34:38.645Z,0.67
2019-02-02T13:37:06.939Z,0.60
2019-02-02T13:39:35.004Z,0.70
2019-02-02T13:42:03.080Z,0.60
2019-02-02T13:44:31.157Z,0.80
2019-02-02T13:46:59.225Z,0.83
2019-02-02T13:49:27.354Z,0.50
2019-02-02T13:51:55.469Z,0.53
2019-02-02T13:54:23.596Z,1.00
2019-02-02T13:56:51.722Z,0.63
2019-02-02T13:59:19.809Z,0.43
2019-02-02T14:01:47.915Z,0.70
2019-02-02T14:04:15.978Z,0.40
2019-02-02T14:06:44.081Z,0.90
2019-02-02T14:09:12.139Z,1.33
2019-02-02T14:11:40.206Z,1.23
2019-02-02T14:14:08.283Z,1.20
2019-02-02T14:16:36.342Z,1.20
2019-02-02T14:19:04.418Z,1.10
2019-02-02T14:21:32.422Z,1.50
2019-02-02T14:24:00.499Z,1.20
2019-02-02T14:26:28.571Z,1.17
2019-02-02T14:28:56.637Z,1.33
2019-02-02T14:31:24.663Z,1.00
2019-02-02T14:33:52.746Z,1.00
2019-02-02T14:36:20.861Z,1.00
2019-02-02T14:38:49.031Z,1.13
2019-02-02T14:41:17.158Z,1.00
2019-02-02T14:43:45.226Z,1.13
2019-02-02T14:46:13.318Z,1.50
2019-02-02T14:48:41.422Z,1.30
2019-02-02T14:51:09.484Z,1.00
2019-02-02T14:53:37.475Z,1.50
2019-02-02T14:56:05.594Z,1.23
2019-02-02T14:58:33.658Z,1.30
2019-02-02T15:01:01.727Z,1.30
2019-02-02T15:03:29.926Z,1.20
2019-02-02T15:05:58.044Z,2.80
2019-02-02T15:08:26.202Z,1.60
2019-02-02T15:10:54.341Z,1.63
2019-02-02T15:13:22.441Z,1.73
2019-02-02T15:15:50.635Z,1.53
2019-02-02T15:18:18.719Z,1.27
2019-02-02T15:20:46.815Z,1.80
2019-02-02T15:23:14.983Z,1.33
2019-02-02T15:25:43.054Z,1.17
2019-02-02T15:28:11.134Z,1.30
2019-02-02T15:30:39.238Z,1.60
2019-02-02T15:33:07.286Z,1.20
2019-02-02T15:35:35.581Z,1.60
2019-02-02T15:38:03.584Z,1.00
2019-02-02T15:40:32.047Z,1.20
2019-02-02T15:43:00.415Z,1.10
2019-02-02T15:45:29.019Z,1.17
2019-02-02T15:47:57.093Z,0.97
2019-02-02T15:50:25.183Z,1.20
2019-02-02T15:52:53.281Z,1.00
2019-02-02T15:55:22.191Z,0.60
2019-02-02T15:57:50.257Z,0.90
2019-02-02T16:00:20.621Z,1.03
2019-02-02T16:02:48.683Z,0.77
2019-02-02T16:05:17.472Z,1.10
2019-02-02T16:07:45.571Z,0.70
2019-02-02T16:10:15.542Z,0.90
2019-02-02T16:12:43.538Z,1.40
2019-02-02T16:15:11.650Z,0.93
2019-02-02T16:17:39.729Z,1.27
2019-02-02T16:20:09.706Z,1.20
2019-02-02T16:22:37.758Z,0.93
2019-02-02T16:25:06.581Z,1.17
2019-02-02T16:27:34.645Z,1.10
2019-02-02T16:30:02.889Z,1.00
2019-02-02T16:32:30.933Z,1.00
2019-02-02T16:34:58.937Z,1.00
2019-02-02T16:37:27.001Z,1.73
2019-02-02T16:39:55.079Z,1.13
2019-02-02T16:42:23.162Z,1.00
2019-02-02T16:44:51.217Z,0.80
2019-02-02T16:47:19.298Z,1.10
2019-02-02T16:49:48.344Z,1.20
2019-02-02T16:52:16.428Z,1.40
2019-02-02T16:54:44.473Z,1.60
2019-02-02T16:57:12.575Z,1.27
2019-02-02T16:59:40.666Z,1.10
2019-02-02T17:02:08.764Z,1.10
2019-02-02T17:04:36.809Z,1.23
2019-02-02T17:07:04.912Z,0.80
2019-02-02T17:09:33.000Z,1.00
2019-02-02T17:12:01.113Z,1.13
2019-02-02T17:14:29.184Z,1.20
2019-02-02T17:16:57.261Z,1.20
2019-02-02T17:19:25.366Z,1.10
2019-02-02T17:21:53.462Z,0.90
2019-02-02T17:24:21.538Z,0.93
2019-02-02T17:26:49.690Z,1.20
2019-02-02T17:29:17.712Z,1.20
2019-02-02T17:31:45.834Z,1.43
2019-02-02T17:34:13.937Z,1.20
2019-02-02T17:36:42.117Z,1.70
2019-02-02T17:39:10.235Z,2.00
2019-02-02T17:41:38.312Z,1.93
2019-02-02T17:44:06.381Z,1.30
2019-02-02T17:46:34.533Z,1.40
2019-02-02T17:49:02.834Z,2.30
2019-02-02T17:51:30.955Z,1.50
2019-02-02T17:53:59.027Z,1.40
2019-02-02T17:56:27.109Z,1.40
2019-02-02T17:58:55.203Z,1.20
2019-02-02T18:01:23.292Z,1.47
2019-02-02T18:03:51.365Z,2.70
2019-02-02T18:06:19.434Z,1.93
2019-02-02T18:08:47.505Z,1.60
2019-02-02T18:11:15.499Z,1.77
2019-02-02T18:13:43.573Z,2.07
2019-02-02T18:16:11.635Z,1.77
2019-02-02T18:18:39.694Z,1.70
2019-02-02T18:21:07.775Z,2.30
2019-02-02T18:23:35.898Z,2.30
2019-02-02T18:26:03.994Z,2.00
2019-02-02T18:28:32.136Z,2.50
2019-02-02T18:31:00.273Z,1.90
2019-02-02T18:33:28.354Z,2.33
2019-02-02T18:35:56.449Z,3.00
2019-02-02T18:38:24.522Z,2.43
2019-02-02T18:40:52.595Z,2.20
2019-02-02T18:43:20.668Z,2.13
2019-02-02T18:45:48.777Z,2.50
2019-02-02T18:48:16.923Z,2.40
2019-02-02T18:50:44.939Z,2.73
2019-02-02T18:53:13.007Z,2.40
2019-02-02T18:55:51.990Z,1.97
2019-02-02T18:58:20.092Z,2.00
2019-02-02T19:00:48.179Z,2.23
2019-02-02T19:03:16.318Z,2.07
2019-02-02T19:05:44.406Z,2.03
2019-02-02T19:08:13.320Z,2.00
2019-02-02T19:10:41.444Z,1.70
2019-02-02T19:13:09.524Z,1.60
2019-02-02T19:15:37.602Z,1.97
2019-02-02T19:18:06.616Z,1.80
2019-02-02T19:20:34.643Z,2.27
2019-02-02T19:23:02.732Z,2.00
2019-02-02T19:25:31.049Z,2.13
2019-02-02T19:27:59.286Z,2.13
2019-02-02T19:30:28.644Z,2.43
2019-02-02T19:32:56.772Z,2.50
2019-02-02T19:35:24.810Z,2.33
2019-02-02T19:37:52.872Z,2.57
2019-02-02T19:40:22.857Z,2.70
2019-02-02T19:42:51.967Z,2.40
2019-02-02T19:45:21.508Z,3.20
2019-02-02T19:47:59.325Z,2.63
2019-02-02T19:50:27.766Z,3.10
2019-02-02T19:52:55.870Z,2.90
2019-02-02T19:55:23.941Z,3.40
2019-02-02T19:57:52.110Z,3.30
2019-02-02T20:00:22.777Z,3.73
2019-02-02T20:02:51.518Z,3.20
2019-02-02T20:05:28.215Z,3.80
2019-02-02T20:07:50.234Z,3.93
2019-02-02T20:10:18.465Z,3.80
2019-02-02T20:12:46.917Z,4.43
2019-02-02T20:15:16.159Z,3.70
2019-02-02T20:17:45.786Z,4.23
2019-02-02T20:20:17.986Z,4.03
2019-02-02T20:22:46.055Z,4.00
2019-02-02T20:25:14.539Z,3.90
2019-02-02T20:27:42.705Z,4.47
2019-02-02T20:30:12.610Z,4.37
2019-02-02T20:32:41.059Z,4.43
2019-02-02T20:35:09.609Z,4.27
2019-02-02T20:37:37.785Z,4.47
2019-02-02T20:40:06.761Z,4.27
2019-02-02T20:42:34.832Z,4.90
2019-02-02T20:45:02.910Z,4.43
2019-02-02T20:47:31.437Z,4.23
2019-02-02T20:50:00.945Z,5.07
2019-02-02T20:52:29.821Z,4.10
2019-02-02T20:54:57.994Z,4.03
2019-02-02T20:57:26.069Z,3.30
2019-02-02T20:59:54.131Z,4.00
2019-02-02T21:02:22.694Z,3.90
2019-02-02T21:04:50.886Z,3.83
2019-02-02T21:07:18.957Z,3.63
2019-02-02T21:09:47.033Z,3.73
2019-02-02T21:12:15.117Z,3.23
2019-02-02T21:14:43.193Z,3.87
2019-02-02T21:17:11.817Z,3.50
2019-02-02T21:19:39.906Z,4.00
2019-02-02T21:22:08.085Z,3.90
2019-02-02T21:24:36.245Z,3.70
2019-02-02T21:27:04.310Z,3.07
2019-02-02T21:29:32.400Z,2.90
2019-02-02T21:32:00.471Z,3.10
2019-02-02T21:34:28.543Z,2.87
2019-02-02T21:36:56.645Z,3.10
2019-02-02T21:39:24.700Z,2.93
2019-02-02T21:41:52.776Z,2.70
2019-02-02T21:44:20.885Z,2.73
2019-02-02T21:46:49.002Z,2.43
2019-02-02T21:49:17.141Z,1.77
2019-02-02T21:51:45.248Z,2.57
2019-02-02T21:54:13.309Z,2.50
2019-02-02T21:56:41.415Z,2.23
2019-02-02T21:59:09.573Z,2.50
2019-02-02T22:01:37.699Z,2.03
2019-02-02T22:04:06.429Z,2.00
2019-02-02T22:06:34.509Z,1.80
2019-02-02T22:09:04.382Z,1.70
2019-02-02T22:11:32.790Z,2.00
2019-02-02T22:14:01.205Z,2.23
2019-02-02T22:16:29.322Z,1.77
2019-02-02T22:18:57.530Z,2.10
2019-02-02T22:21:25.596Z,1.50
2019-02-02T22:23:54.897Z,1.93
2019-02-02T22:26:23.387Z,1.50
2019-02-02T22:28:53.105Z,1.67
2019-02-02T22:31:21.400Z,1.80
2019-02-02T22:33:49.762Z,1.40
2019-02-02T22:36:26.966Z,1.77
2019-02-02T22:38:47.880Z,1.60
2019-02-02T22:41:16.014Z,1.60
2019-02-02T22:43:44.216Z,1.50
2019-02-02T22:46:12.275Z,1.57
2019-02-02T22:48:40.362Z,1.50
2019-02-02T22:51:08.406Z,1.67
2019-02-02T22:53:37.101Z,1.50
2019-02-02T22:56:05.176Z,1.40
2019-02-02T22:58:33.975Z,1.83
2019-02-02T23:01:24.683Z,1.50
2019-02-02T23:03:56.505Z,1.83
2019-02-02T23:06:49.877Z,1.33
2019-02-02T23:09:39.792Z,1.40
2019-02-02T23:12:26.946Z,1.93
2019-02-02T23:15:16.826Z,1.30
2019-02-02T23:17:45.055Z,1.53
2019-02-02T23:20:13.119Z,1.43
2019-02-02T23:23:00.241Z,1.50
2019-02-02T23:25:28.334Z,1.60
2019-02-02T23:27:56.840Z,1.20
2019-02-02T23:30:24.934Z,1.27
2019-02-02T23:32:53.015Z,1.60
2019-02-02T23:35:21.134Z,1.50
2019-02-02T23:37:49.206Z,1.43
2019-02-02T23:40:17.341Z,1.70
2019-02-02T23:42:46.134Z,1.63
2019-02-02T23:45:14.330Z,1.30
2019-02-02T23:47:42.448Z,1.27
2019-02-02T23:50:10.662Z,1.37
2019-02-02T23:52:38.784Z,1.40
2019-02-02T23:55:06.989Z,1.43
2019-02-02T23:57:35.578Z,1.30
